Time;durP1;ratioP1;P1;durP2;ratioP2;P2;SDS_P1;SDS_P2;PMS_P1;PMS_P2;Temp;Humidity;BMP_temperature;BMP_pressure;BME280_temperature;BME280_humidity;BME280_pressure;Samples;Min_cycle;Max_cycle;Signal;HPM_P1;HPM_P2
2022/07/06 00:04:12;;;;;;;3.67;1.35;;;;;;;21.16;41.70;100772.75;10349138;28;20163;-70
2022/07/06 00:09:14;;;;;;;2.58;1.42;;;;;;;21.08;42.35;100770.13;10353969;28;20181;-71
2022/07/06 00:14:16;;;;;;;3.80;1.05;;;;;;;21.05;42.66;100775.88;10348188;28;20053;-71
2022/07/06 00:19:17;;;;;;;1.92;1.58;;;;;;;20.95;43.03;100778.81;10348108;28;20854;-72
2022/07/06 00:24:19;;;;;;;1.90;1.58;;;;;;;20.93;42.96;100785.44;10348229;28;20504;-71
2022/07/06 00:29:20;;;;;;;2.53;1.35;;;;;;;20.93;43.44;100788.16;10351678;28;20108;-71
2022/07/06 00:34:22;;;;;;;5.13;1.60;;;;;;;20.90;43.83;100793.94;10349521;28;20377;-73
2022/07/06 00:39:28;;;;;;;3.53;1.45;;;;;;;20.84;43.86;100787.34;10349612;28;20144;-71
2022/07/06 00:44:32;;;;;;;3.20;1.60;;;;;;;20.80;43.82;100784.16;10346788;28;20064;-71
2022/07/06 00:54:54;;;;;;;1.48;1.15;;;;;;;20.67;45.27;100783.88;10345758;28;20133;-71
2022/07/06 00:59:56;;;;;;;2.95;1.60;;;;;;;20.65;45.57;100780.47;10344746;28;20108;-71
2022/07/06 01:04:58;;;;;;;3.10;1.50;;;;;;;20.36;46.25;100781.97;10351342;28;20132;-70
2022/07/06 01:10:00;;;;;;;5.10;1.88;;;;;;;20.30;45.92;100788.91;10347644;28;20080;-72
2022/07/06 01:15:07;;;;;;;3.60;1.65;;;;;;;20.26;46.75;100781.31;10330574;28;20214;-71
2022/07/06 01:20:16;;;;;;;2.75;1.60;;;;;;;20.28;46.67;100773.88;10330822;28;20557;-69
2022/07/06 01:25:18;;;;;;;1.55;1.45;;;;;;;20.05;47.74;100787.31;10343739;28;20165;-70
2022/07/06 01:30:20;;;;;;;4.80;1.50;;;;;;;19.87;47.35;100782.94;10338430;28;20116;-71
2022/07/06 01:35:24;;;;;;;4.03;1.35;;;;;;;19.75;48.39;100779.72;10322595;28;20144;-71
2022/07/06 01:40:25;;;;;;;2.38;1.67;;;;;;;19.70;47.75;100783.97;10346585;28;20072;-71
2022/07/06 01:45:27;;;;;;;1.70;1.10;;;;;;;19.77;48.69;100777.72;10340869;28;20197;-71
2022/07/06 01:50:28;;;;;;;3.28;1.60;;;;;;;19.90;48.62;100776.34;10342777;28;20133;-70
2022/07/06 01:55:29;;;;;;;2.67;1.10;;;;;;;19.75;48.45;100779.72;10343281;28;20128;-70
2022/07/06 02:00:31;;;;;;;2.08;1.58;;;;;;;19.90;49.60;100779.88;10344233;28;20136;-71
2022/07/06 02:05:32;;;;;;;1.75;1.27;;;;;;;19.77;48.69;100780.44;10324096;28;20148;-71
2022/07/06 02:10:34;;;;;;;3.05;1.85;;;;;;;19.71;49.50;100781.09;10324481;28;20174;-69
2022/07/06 02:15:35;;;;;;;4.93;1.50;;;;;;;19.83;49.45;100791.56;10344848;28;20132;-71
2022/07/06 02:20:37;;;;;;;2.20;1.38;;;;;;;19.71;49.39;100780.22;10320054;28;20041;-71
2022/07/06 02:25:38;;;;;;;3.33;1.30;;;;;;;19.61;49.57;100791.22;10315490;28;20101;-72
2022/07/06 02:30:39;;;;;;;3.28;1.58;;;;;;;19.65;49.31;100786.31;10329327;28;20215;-71
2022/07/06 02:35:42;;;;;;;5.82;1.50;;;;;;;19.67;49.80;100792.41;10334127;28;22127;-71
2022/07/06 02:40:44;;;;;;;4.77;1.67;;;;;;;19.56;49.72;100785.47;10316995;28;20064;-70
2022/07/06 02:45:45;;;;;;;1.77;1.30;;;;;;;19.53;50.00;100785.81;10340257;28;20064;-70
2022/07/06 02:50:47;;;;;;;3.45;1.52;;;;;;;19.54;50.28;100782.94;10324556;28;20050;-70
2022/07/06 02:55:49;;;;;;;4.93;1.40;;;;;;;19.58;50.44;100794.25;10351315;28;20160;-70
2022/07/06 03:00:50;;;;;;;3.63;1.13;;;;;;;19.35;50.56;100788.69;10337780;28;20120;-70
2022/07/06 03:05:52;;;;;;;2.60;1.40;;;;;;;19.26;50.86;100795.94;10345433;28;20061;-70
2022/07/06 03:10:53;;;;;;;1.85;1.25;;;;;;;19.20;50.98;100807.38;10347717;28;20056;-70
2022/07/06 03:15:55;;;;;;;2.65;1.58;;;;;;;19.13;51.15;100787.50;10349665;28;20228;-71
2022/07/06 03:20:56;;;;;;;2.50;1.05;;;;;;;19.14;50.98;100810.75;10354332;28;20212;-70
2022/07/06 03:25:58;;;;;;;2.22;1.13;;;;;;;19.23;50.09;100817.84;10353704;28;20204;-70
2022/07/06 03:30:59;;;;;;;1.58;1.23;;;;;;;19.01;50.57;100809.38;10347394;28;20187;-71
2022/07/06 03:36:01;;;;;;;1.70;1.30;;;;;;;18.99;50.28;100818.66;10351792;28;20060;-72
2022/07/06 03:41:02;;;;;;;1.40;1.02;;;;;;;19.01;50.67;100825.56;10349848;28;20053;-70
2022/07/06 03:46:04;;;;;;;2.70;1.10;;;;;;;18.86;50.75;100822.66;10364198;28;20165;-72
2022/07/06 03:51:06;;;;;;;3.38;1.00;;;;;;;18.92;50.50;100828.44;10346968;28;20049;-70
2022/07/06 04:01:27;;;;;;;3.00;1.20;;;;;;;18.41;51.34;100837.28;10349420;28;20132;-72
2022/07/06 04:06:30;;;;;;;3.50;1.23;;;;;;;18.67;50.58;100837.22;10349115;28;20041;-70
2022/07/06 04:11:31;;;;;;;3.20;1.33;;;;;;;18.56;51.12;100842.91;10343273;28;20152;-70
2022/07/06 04:16:32;;;;;;;1.95;0.93;;;;;;;18.84;51.25;100854.31;10347437;28;20746;-71
2022/07/06 04:21:34;;;;;;;1.92;0.88;;;;;;;18.75;51.23;100843.66;10355785;28;20155;-71
2022/07/06 04:26:35;;;;;;;1.88;1.33;;;;;;;18.79;51.30;100855.81;10347645;28;20142;-71
2022/07/06 04:31:37;;;;;;;2.50;1.40;;;;;;;18.67;51.16;100866.88;10336669;28;20065;-70
2022/07/06 04:36:40;;;;;;;3.35;1.40;;;;;;;18.82;50.77;100858.19;10338927;28;20058;-70
2022/07/06 04:41:41;;;;;;;4.25;1.10;;;;;;;18.85;50.96;100863.25;10325799;28;20759;-72
2022/07/06 04:46:42;;;;;;;2.95;1.15;;;;;;;18.81;50.80;100864.56;10343923;28;20465;-69
2022/07/06 04:51:44;;;;;;;1.75;1.13;;;;;;;18.49;52.28;100876.91;10348420;28;20054;-70
2022/07/06 04:56:46;;;;;;;2.33;1.27;;;;;;;18.59;51.71;100872.25;10336530;28;20137;-70
2022/07/06 05:01:48;;;;;;;3.10;1.42;;;;;;;18.35;52.89;100865.72;10304365;28;20050;-69
2022/07/06 05:06:50;;;;;;;3.03;1.40;;;;;;;18.44;52.65;100876.56;10342187;28;20127;-67
2022/07/06 05:11:51;;;;;;;12.10;1.98;;;;;;;18.42;52.88;100881.25;10338773;28;20052;-71
2022/07/06 05:16:53;;;;;;;3.95;1.60;;;;;;;18.16;53.74;100876.69;10341239;28;20076;-70
2022/07/06 05:21:54;;;;;;;2.60;1.38;;;;;;;18.34;53.66;100882.03;10328267;28;20049;-72
2022/07/06 05:26:56;;;;;;;2.90;1.60;;;;;;;18.25;53.61;100881.13;10349874;28;20121;-70
2022/07/06 05:31:58;;;;;;;2.85;1.50;;;;;;;18.55;53.00;100895.13;10338373;28;20189;-70
2022/07/06 05:37:00;;;;;;;2.78;1.73;;;;;;;18.69;52.16;100896.38;10298807;28;20510;-69
2022/07/06 05:42:01;;;;;;;2.00;1.35;;;;;;;18.66;52.79;100886.78;10306061;28;20657;-71
2022/07/06 05:52:24;;;;;;;1.80;1.38;;;;;;;18.85;51.64;100895.63;10360387;28;20049;-72
2022/07/06 05:57:26;;;;;;;2.00;1.50;;;;;;;18.84;52.18;100896.63;10354332;28;20451;-70
2022/07/06 06:02:39;;;;;;;5.18;1.70;;;;;;;19.04;51.80;100890.00;10336346;28;20050;-71
2022/07/06 06:07:41;;;;;;;2.70;1.45;;;;;;;19.15;50.63;100917.69;10339939;28;20061;-70
2022/07/06 06:12:43;;;;;;;5.45;1.70;;;;;;;19.15;51.40;100914.97;10322859;28;20057;-67
2022/07/06 06:17:44;;;;;;;2.50;1.92;;;;;;;19.27;51.21;100915.53;10330387;28;20058;-67
2022/07/06 06:22:57;;;;;;;4.57;2.28;;;;;;;19.30;51.33;100916.03;10334036;28;20060;-67
2022/07/06 06:27:59;;;;;;;3.13;1.83;;;;;;;19.65;49.99;100902.44;10337801;28;20057;-67
2022/07/06 06:33:21;;;;;;;3.13;1.98;;;;;;;19.68;49.96;100913.75;10303888;28;20614;-68
2022/07/06 06:38:26;;;;;;;1.88;1.23;;;;;;;19.58;50.50;100910.38;10299371;28;20344;-68
2022/07/06 06:43:29;;;;;;;3.53;1.83;;;;;;;19.68;49.91;100902.97;10334695;28;20185;-70
2022/07/06 06:48:31;;;;;;;4.80;1.70;;;;;;;20.03;49.34;100917.19;10342176;28;20158;-69
2022/07/06 06:53:33;;;;;;;3.78;2.20;;;;;;;19.89;48.57;100921.41;10313595;28;20595;-67
2022/07/06 06:58:40;;;;;;;2.83;2.00;;;;;;;20.07;48.96;100907.72;10331220;28;20131;-68
2022/07/06 07:04:01;;;;;;;4.60;2.45;;;;;;;20.63;48.20;100926.72;10322993;28;20115;-71
2022/07/06 07:09:03;;;;;;;3.22;1.95;;;;;;;20.47;48.50;100930.28;10342727;28;21116;-69
2022/07/06 07:14:04;;;;;;;4.85;2.50;;;;;;;20.34;47.94;100923.72;10341452;28;20475;-68
2022/07/06 07:19:06;;;;;;;4.28;2.08;;;;;;;20.52;47.97;100926.22;10344152;28;20062;-68
2022/07/06 07:24:08;;;;;;;3.58;2.58;;;;;;;20.80;47.06;100935.66;10335318;28;20046;-71
2022/07/06 07:29:11;;;;;;;2.85;1.70;;;;;;;20.91;46.54;100939.00;10332030;28;21218;-69
2022/07/06 07:34:12;;;;;;;5.40;2.38;;;;;;;20.69;46.54;100938.75;10336335;28;20049;-69
2022/07/06 07:39:14;;;;;;;1.92;1.50;;;;;;;20.65;46.55;100934.66;10348081;28;20049;-70
2022/07/06 07:44:16;;;;;;;4.28;1.70;;;;;;;20.87;47.21;100929.53;10357239;28;20139;-71
2022/07/06 07:49:17;;;;;;;2.05;1.65;;;;;;;21.32;46.25;100930.72;10341614;28;20056;-71
2022/07/06 07:54:22;;;;;;;3.25;1.35;;;;;;;21.58;44.95;100926.84;10343198;28;20208;-70
2022/07/06 07:59:23;;;;;;;3.67;1.40;;;;;;;21.85;43.53;100929.00;10344642;28;20843;-71
2022/07/06 08:04:25;;;;;;;3.40;1.25;;;;;;;21.24;43.78;100926.16;10350213;28;20849;-70
2022/07/06 08:09:26;;;;;;;2.83;1.77;;;;;;;21.22;43.30;100927.38;10350771;28;20129;-70
2022/07/06 08:14:28;;;;;;;3.00;1.40;;;;;;;20.99;44.82;100928.16;10346877;28;20058;-70
2022/07/06 08:19:30;;;;;;;3.55;2.20;;;;;;;20.82;44.55;100928.22;10349364;28;20493;-70
2022/07/06 08:24:31;;;;;;;4.65;1.42;;;;;;;20.93;45.02;100942.38;10355015;28;20053;-71
2022/07/06 08:29:33;;;;;;;2.30;1.85;;;;;;;21.33;43.60;100940.50;10349580;28;20747;-72
2022/07/06 08:34:34;;;;;;;6.15;2.08;;;;;;;21.42;42.85;100935.88;10354488;28;20080;-70
2022/07/06 08:39:36;;;;;;;2.85;2.25;;;;;;;21.73;42.69;100940.47;10348697;28;20736;-69
2022/07/06 08:44:38;;;;;;;3.15;2.00;;;;;;;21.85;42.22;100939.03;10322122;28;20084;-69
2022/07/06 08:49:40;;;;;;;3.35;2.30;;;;;;;21.97;41.55;100931.31;10318977;28;20102;-71
2022/07/06 08:54:41;;;;;;;2.20;1.70;;;;;;;22.13;41.18;100933.88;10315559;28;20467;-71
2022/07/06 08:59:43;;;;;;;5.35;2.30;;;;;;;22.49;40.86;100927.81;10317796;28;20057;-70
2022/07/06 09:04:46;;;;;;;3.95;2.65;;;;;;;22.32;40.39;100939.84;10340276;28;20071;-68
2022/07/06 09:09:49;;;;;;;4.57;2.03;;;;;;;22.34;40.13;100935.91;10332154;28;20073;-71
2022/07/06 09:14:51;;;;;;;4.15;2.17;;;;;;;22.63;39.98;100930.72;10319837;28;20128;-71
2022/07/06 09:19:52;;;;;;;3.90;2.85;;;;;;;22.69;39.26;100935.41;10334053;28;20088;-70
2022/07/06 09:25:01;;;;;;;3.25;2.05;;;;;;;22.38;39.95;100939.94;10342052;28;20139;-71
2022/07/06 09:30:03;;;;;;;2.88;1.90;;;;;;;22.41;40.81;100933.28;10337856;28;20085;-71
2022/07/06 09:35:05;;;;;;;2.88;2.28;;;;;;;22.55;39.50;100921.63;10343778;28;20602;-71
2022/07/06 09:40:16;;;;;;;5.32;2.78;;;;;;;22.75;39.13;100929.22;10345800;28;20148;-70
2022/07/06 09:45:21;;;;;;;2.88;2.30;;;;;;;22.72;39.97;100929.59;10343882;28;20049;-70
2022/07/06 09:50:27;;;;;;;4.07;1.98;;;;;;;22.51;39.88;100928.44;10346366;28;20602;-71
2022/07/06 09:55:29;;;;;;;3.00;1.75;;;;;;;22.73;39.78;100920.44;10314374;28;20122;-69
2022/07/06 10:00:31;;;;;;;3.27;1.87;;;;;;;22.91;39.18;100934.44;10345868;28;20363;-71
2022/07/06 10:05:33;;;;;;;3.85;2.10;;;;;;;22.70;38.53;100932.50;10313773;28;20128;-70
2022/07/06 10:10:36;;;;;;;3.90;2.22;;;;;;;22.49;38.64;100935.06;10333169;28;20101;-72
2022/07/06 10:15:39;;;;;;;;;;;;;;;22.36;38.03;100933.03;10334142;28;20172;-72
2022/07/06 10:20:41;;;;;;;2.53;1.75;;;;;;;22.72;38.63;100921.44;10337733;28;20491;-71
2022/07/06 10:25:45;;;;;;;2.08;1.60;;;;;;;22.97;36.98;100922.00;10321717;28;20075;-71
2022/07/06 10:30:48;;;;;;;3.13;1.60;;;;;;;23.32;36.70;100921.41;10335227;28;20962;-71
2022/07/06 10:35:50;;;;;;;3.78;2.05;;;;;;;24.10;34.73;100916.97;10339453;28;20094;-71
2022/07/06 10:41:06;;;;;;;5.28;2.10;;;;;;;24.02;33.29;100908.09;10319598;28;20058;-72
2022/07/06 10:46:19;;;;;;;2.88;1.10;;;;;;;23.83;33.04;100902.28;10312067;28;21097;-72
2022/07/06 10:51:28;;;;;;;2.17;1.40;;;;;;;24.53;34.08;100907.88;10317504;28;20126;-70
2022/07/06 10:56:37;;;;;;;2.40;1.80;;;;;;;25.09;33.37;100906.91;10318147;28;20056;-73
2022/07/06 11:01:40;;;;;;;2.20;1.58;;;;;;;24.86;32.89;100899.03;10327327;28;20069;-70
2022/07/06 11:06:47;;;;;;;5.15;1.65;;;;;;;25.55;30.90;100902.66;10332390;28;20142;-70
2022/07/06 11:11:49;;;;;;;2.35;1.40;;;;;;;25.74;31.00;100896.41;10309282;28;20089;-72
2022/07/06 11:16:51;;;;;;;2.63;1.80;;;;;;;25.50;31.29;100906.00;10327024;28;20049;-72
2022/07/06 11:21:59;;;;;;;5.15;1.45;;;;;;;25.93;30.56;100904.81;10334568;28;20064;-71
2022/07/06 11:27:01;;;;;;;1.92;1.50;;;;;;;26.48;31.09;100899.09;10315533;28;20381;-71
2022/07/06 11:32:04;;;;;;;3.07;1.30;;;;;;;26.31;29.21;100896.00;10341917;28;20079;-72
2022/07/06 11:37:11;;;;;;;2.65;1.20;;;;;;;26.79;29.44;100892.13;10322906;28;20688;-72
2022/07/06 11:42:14;;;;;;;4.68;1.27;;;;;;;27.31;28.35;100892.13;10322486;28;20099;-72
2022/07/06 11:47:15;;;;;;;2.70;1.40;;;;;;;26.39;28.06;100890.34;10342204;28;20071;-72
2022/07/06 11:52:24;;;;;;;3.40;1.23;;;;;;;26.49;28.21;100884.41;10336549;28;20089;-70
2022/07/06 11:57:29;;;;;;;1.13;0.88;;;;;;;27.27;29.22;100871.75;10328914;28;20143;-71
2022/07/06 12:02:30;;;;;;;2.60;1.27;;;;;;;27.72;25.70;100868.94;10341039;28;20050;-71
2022/07/06 12:07:32;;;;;;;2.10;1.07;;;;;;;27.77;26.70;100860.88;10326963;28;20184;-70
2022/07/06 12:12:34;;;;;;;1.00;0.60;;;;;;;27.38;27.67;100860.13;10334786;28;20520;-71
2022/07/06 12:17:36;;;;;;;1.20;0.70;;;;;;;26.77;27.45;100859.59;10320755;28;20087;-71
2022/07/06 12:22:37;;;;;;;1.65;0.85;;;;;;;26.95;27.00;100863.50;10333928;28;20159;-71
2022/07/06 12:27:39;;;;;;;1.10;0.68;;;;;;;26.20;26.78;100853.00;10337927;28;20064;-72
2022/07/06 12:32:41;;;;;;;1.65;0.45;;;;;;;26.61;27.75;100847.22;10339305;28;20088;-71
2022/07/06 12:37:56;;;;;;;2.43;0.57;;;;;;;26.94;27.23;100857.19;10346506;28;20064;-70
2022/07/06 12:42:57;;;;;;;1.17;0.60;;;;;;;26.88;27.23;100846.31;10321993;28;20053;-70
2022/07/06 12:48:01;;;;;;;1.00;0.50;;;;;;;26.51;27.12;100846.00;10326294;28;20168;-70
2022/07/06 12:53:05;;;;;;;2.00;0.75;;;;;;;26.79;27.75;100843.81;10328306;28;20050;-71
2022/07/06 12:58:18;;;;;;;0.80;0.50;;;;;;;26.85;26.81;100838.56;10315169;28;20208;-72
2022/07/06 13:03:19;;;;;;;1.63;0.40;;;;;;;26.52;27.44;100848.50;10321802;28;20250;-73
2022/07/06 13:08:21;;;;;;;1.58;0.68;;;;;;;25.56;28.30;100833.47;10313289;28;20069;-72
2022/07/06 13:13:22;;;;;;;2.60;0.75;;;;;;;25.14;29.00;100849.09;10315711;28;20049;-74
2022/07/06 13:18:24;;;;;;;2.73;0.47;;;;;;;25.56;29.02;100850.66;10325633;28;20054;-73
2022/07/06 13:23:26;;;;;;;0.98;0.60;;;;;;;25.76;28.24;100842.53;10331513;28;21258;-72
2022/07/06 13:28:28;;;;;;;1.95;0.55;;;;;;;25.63;29.03;100828.88;10316719;28;20057;-71
2022/07/06 13:33:30;;;;;;;1.38;0.57;;;;;;;25.86;28.51;100835.78;10331384;28;20169;-70
2022/07/06 13:38:31;;;;;;;1.38;0.57;;;;;;;26.03;28.56;100834.34;10328327;28;20158;-74
2022/07/06 13:43:36;;;;;;;2.88;0.77;;;;;;;25.70;28.96;100824.28;10337283;28;20169;-70
2022/07/06 13:48:37;;;;;;;2.97;0.50;;;;;;;25.89;28.67;100819.84;10328798;28;21052;-69
2022/07/06 13:53:39;;;;;;;1.07;0.50;;;;;;;25.32;28.96;100811.22;10328077;28;20064;-71
2022/07/06 13:58:40;;;;;;;5.53;0.98;;;;;;;25.22;29.15;100830.69;10300868;28;20045;-71
2022/07/06 14:03:42;;;;;;;3.15;0.63;;;;;;;24.87;29.90;100828.06;10301395;28;20513;-71
2022/07/06 14:08:43;;;;;;;1.95;0.40;;;;;;;25.20;30.04;100813.69;10335449;28;20051;-73
2022/07/06 14:13:45;;;;;;;2.45;1.05;;;;;;;25.60;29.80;100815.69;10325956;28;20093;-71
2022/07/06 14:18:47;;;;;;;2.25;0.85;;;;;;;24.93;30.02;100820.13;10316845;28;20210;-71
2022/07/06 14:23:49;;;;;;;1.42;0.77;;;;;;;24.40;31.01;100812.56;10318776;28;20053;-72
2022/07/06 14:28:51;;;;;;;2.25;1.00;;;;;;;24.62;31.12;100807.88;10325833;28;20632;-71
2022/07/06 14:33:52;;;;;;;1.58;0.80;;;;;;;24.77;30.58;100805.00;10326100;28;20540;-72
2022/07/06 14:38:54;;;;;;;1.35;0.77;;;;;;;24.69;30.95;100795.94;10318528;28;20254;-71
2022/07/06 14:43:55;;;;;;;1.83;1.10;;;;;;;24.63;31.00;100791.34;10338968;28;20056;-71
2022/07/06 14:48:57;;;;;;;2.88;0.95;;;;;;;24.59;32.94;100800.09;10319537;28;20074;-68
2022/07/06 14:53:58;;;;;;;1.38;0.80;;;;;;;24.45;31.74;100800.00;10342701;28;20226;-71
2022/07/06 14:59:00;;;;;;;1.42;0.68;;;;;;;24.52;31.19;100795.44;10347449;28;20053;-71
2022/07/06 15:04:22;;;;;;;3.00;0.90;;;;;;;24.51;30.69;100795.66;10337804;28;20053;-71
2022/07/06 15:09:24;;;;;;;2.40;0.87;;;;;;;24.48;31.07;100790.63;10325387;28;20049;-71
2022/07/06 15:14:25;;;;;;;2.25;0.82;;;;;;;24.27;30.06;100802.44;10345741;28;20075;-73
2022/07/06 15:19:27;;;;;;;4.75;1.40;;;;;;;24.05;30.84;100799.81;10347262;28;20132;-72
2022/07/06 15:24:28;;;;;;;3.00;1.00;;;;;;;23.64;31.23;100798.66;10344254;28;20156;-73
2022/07/06 15:29:30;;;;;;;1.67;1.00;;;;;;;23.54;31.07;100797.28;10367300;28;20157;-72
2022/07/06 15:34:32;;;;;;;2.25;0.88;;;;;;;23.50;31.21;100805.00;10334367;28;20444;-73
2022/07/06 15:39:34;;;;;;;1.95;0.80;;;;;;;23.19;31.48;100789.03;10346117;28;20057;-72
2022/07/06 15:44:35;;;;;;;2.45;0.80;;;;;;;23.04;31.78;100791.75;10398143;28;20170;-75
2022/07/06 15:49:36;;;;;;;1.33;0.82;;;;;;;23.34;31.49;100780.81;10334070;28;20180;-73
2022/07/06 15:54:38;;;;;;;3.13;1.08;;;;;;;23.46;31.28;100784.69;10344604;28;20129;-72
2022/07/06 15:59:39;;;;;;;2.30;1.17;;;;;;;22.99;32.14;100767.91;10349123;28;20160;-72
2022/07/06 16:04:41;;;;;;;2.10;1.10;;;;;;;23.30;32.29;100759.47;10361040;28;22492;-72
2022/07/06 16:09:42;;;;;;;2.08;1.77;;;;;;;23.48;32.32;100760.88;10336675;28;20649;-71
2022/07/06 16:14:43;;;;;;;1.88;1.00;;;;;;;23.50;32.07;100764.25;10330082;28;20049;-72
2022/07/06 16:19:45;;;;;;;4.85;1.02;;;;;;;23.34;32.38;100764.50;10357344;28;20214;-73
2022/07/06 16:24:54;;;;;;;3.97;0.90;;;;;;;23.03;33.21;100758.34;10349717;28;21627;-72
2022/07/06 16:30:00;;;;;;;1.83;0.75;;;;;;;23.11;33.60;100751.97;10361222;28;20046;-70
2022/07/06 16:35:02;;;;;;;1.05;0.60;;;;;;;23.29;33.07;100752.34;10345059;28;20153;-73
2022/07/06 16:40:04;;;;;;;1.65;0.82;;;;;;;23.15;32.91;100753.28;10333146;28;20056;-71
2022/07/06 16:45:07;;;;;;;1.98;0.90;;;;;;;23.00;32.84;100752.44;10333496;28;20051;-71
2022/07/06 16:50:12;;;;;;;0.98;0.73;;;;;;;22.74;33.49;100759.28;10330685;28;20058;-71
2022/07/06 16:55:14;;;;;;;2.95;0.80;;;;;;;22.73;33.89;100758.44;10314021;28;20751;-73
2022/07/06 17:00:16;;;;;;;2.95;0.77;;;;;;;22.54;33.51;100759.88;10354020;28;20726;-73
2022/07/06 17:05:17;;;;;;;2.38;0.93;;;;;;;22.38;33.52;100757.38;10371705;28;20046;-72
2022/07/06 17:10:19;;;;;;;2.58;1.30;;;;;;;22.47;33.92;100753.53;10328597;28;20070;-72
2022/07/06 17:15:20;;;;;;;2.80;0.73;;;;;;;22.64;34.17;100756.03;10350313;28;20136;-74
2022/07/06 17:20:22;;;;;;;4.60;1.50;;;;;;;22.79;33.93;100767.69;10352569;28;20137;-72
2022/07/06 17:25:24;;;;;;;2.00;0.60;;;;;;;22.75;33.73;100755.53;10353841;28;20127;-72
2022/07/06 17:30:26;;;;;;;2.75;0.80;;;;;;;22.60;33.63;100759.13;10351298;28;20705;-71
2022/07/06 17:35:29;;;;;;;2.65;1.17;;;;;;;22.72;33.94;100756.75;10349497;28;20860;-71
2022/07/06 17:40:30;;;;;;;3.05;1.00;;;;;;;22.67;33.40;100750.22;10347861;28;20134;-71
2022/07/06 17:45:33;;;;;;;1.95;0.85;;;;;;;22.52;34.33;100742.97;10340092;28;20065;-71
2022/07/06 17:50:35;;;;;;;2.35;0.80;;;;;;;22.48;34.45;100744.38;10323256;28;20064;-70
2022/07/06 17:55:37;;;;;;;1.55;0.75;;;;;;;22.29;34.33;100744.94;10361396;28;20048;-72
2022/07/06 18:00:40;;;;;;;1.77;1.15;;;;;;;22.00;34.88;100747.47;10349135;28;20067;-69
2022/07/06 18:05:42;;;;;;;3.70;0.98;;;;;;;21.89;35.82;100746.06;10364512;28;20053;-75
2022/07/06 18:10:47;;;;;;;2.22;0.98;;;;;;;21.81;35.42;100753.44;10380799;28;20952;-71
2022/07/06 18:15:49;;;;;;;4.28;1.30;;;;;;;21.76;36.20;100756.69;10350430;28;20181;-71
2022/07/06 18:20:53;;;;;;;2.95;1.02;;;;;;;21.72;35.86;100749.97;10350837;28;20136;-73
2022/07/06 18:25:57;;;;;;;3.00;0.80;;;;;;;21.39;36.82;100744.81;10348863;28;20104;-71
2022/07/06 18:30:58;;;;;;;1.13;0.75;;;;;;;21.38;36.21;100745.88;10348039;28;20053;-72
2022/07/06 18:35:59;;;;;;;1.17;0.75;;;;;;;21.26;37.20;100750.88;10348899;28;20072;-72
2022/07/06 18:41:01;;;;;;;3.05;0.90;;;;;;;21.30;37.37;100763.03;10328345;28;20140;-71
2022/07/06 18:46:03;;;;;;;1.00;0.85;;;;;;;21.19;37.06;100756.16;10337382;28;20701;-72
2022/07/06 18:51:05;;;;;;;1.38;1.00;;;;;;;21.01;37.41;100758.31;10351726;28;20068;-73
2022/07/06 18:56:07;;;;;;;2.17;0.70;;;;;;;20.92;37.43;100746.72;10335711;28;20054;-71
2022/07/06 19:01:08;;;;;;;3.00;0.88;;;;;;;20.81;38.76;100752.53;10346478;28;20061;-72
2022/07/06 19:06:11;;;;;;;3.55;1.42;;;;;;;20.73;37.93;100748.03;10308436;28;20054;-72
2022/07/06 19:11:13;;;;;;;1.35;0.65;;;;;;;20.69;37.97;100744.00;10323706;28;20134;-72
2022/07/06 19:16:21;;;;;;;1.50;0.80;;;;;;;20.74;39.74;100759.69;10326884;28;20129;-72
2022/07/06 19:21:23;;;;;;;3.75;1.23;;;;;;;20.69;39.05;100762.91;10303839;28;20052;-70
2022/07/06 19:26:25;;;;;;;6.07;2.45;;;;;;;20.66;38.68;100761.41;10325909;28;20859;-71
2022/07/06 19:31:28;;;;;;;3.42;0.80;;;;;;;20.76;38.96;100768.44;10324938;28;20049;-72
2022/07/06 19:36:30;;;;;;;3.15;0.95;;;;;;;20.65;39.41;100765.13;10327127;28;20598;-72
2022/07/06 19:41:31;;;;;;;3.28;1.02;;;;;;;20.72;39.19;100778.78;10306260;28;20052;-68
2022/07/06 19:46:33;;;;;;;2.20;0.90;;;;;;;20.63;39.67;100769.00;10338920;28;20061;-69
2022/07/06 19:51:34;;;;;;;2.28;1.10;;;;;;;20.66;39.25;100779.50;10336102;28;20057;-70
2022/07/06 19:56:36;;;;;;;1.98;0.85;;;;;;;20.59;39.06;100786.59;10349740;28;20085;-72
2022/07/06 20:01:37;;;;;;;2.15;0.90;;;;;;;20.51;39.84;100789.31;10336014;28;20058;-71
2022/07/06 20:06:40;;;;;;;3.05;1.40;;;;;;;20.44;39.87;100783.78;10326279;28;20116;-71
2022/07/06 20:11:42;;;;;;;2.83;0.85;;;;;;;20.43;40.42;100788.38;10320273;28;20444;-70
2022/07/06 20:16:44;;;;;;;2.72;0.98;;;;;;;20.43;40.74;100792.91;10358680;28;20057;-73
2022/07/06 20:21:46;;;;;;;2.58;1.30;;;;;;;20.42;40.85;100797.50;10352271;28;20045;-71
2022/07/06 20:26:48;;;;;;;1.38;1.00;;;;;;;20.38;40.72;100798.84;10341671;28;20671;-72
2022/07/06 20:31:49;;;;;;;2.63;1.30;;;;;;;20.26;42.13;100787.56;10328047;28;20061;-71
2022/07/06 20:36:51;;;;;;;2.83;1.35;;;;;;;20.27;40.51;100783.84;10310049;28;20140;-73
2022/07/06 20:41:52;;;;;;;1.70;1.00;;;;;;;20.33;41.25;100778.75;10342683;28;20131;-70
2022/07/06 20:46:54;;;;;;;3.30;1.33;;;;;;;20.35;40.60;100780.28;10309173;28;20147;-72
2022/07/06 20:51:55;;;;;;;2.58;1.25;;;;;;;20.39;40.82;100770.81;10320053;28;20544;-71
2022/07/06 20:56:57;;;;;;;2.30;1.02;;;;;;;20.30;41.37;100778.09;10342631;28;20154;-69
2022/07/06 21:01:59;;;;;;;3.05;1.10;;;;;;;20.28;41.46;100784.69;10340706;28;20140;-71
2022/07/06 21:07:01;;;;;;;1.92;0.90;;;;;;;20.32;41.67;100780.63;10348767;28;20697;-71
2022/07/06 21:12:02;;;;;;;1.13;0.75;;;;;;;20.30;40.73;100772.69;10347213;28;20822;-72
2022/07/06 21:17:04;;;;;;;2.22;1.20;;;;;;;20.24;41.88;100776.09;10348166;28;20112;-70
2022/07/06 21:22:10;;;;;;;2.00;1.15;;;;;;;20.29;41.89;100770.16;10340491;28;20050;-71
2022/07/06 21:27:11;;;;;;;2.13;1.23;;;;;;;20.33;41.66;100776.91;10346338;28;20068;-71
2022/07/06 21:32:13;;;;;;;2.33;1.15;;;;;;;20.25;41.15;100758.88;10348020;28;20104;-70
2022/07/06 21:37:14;;;;;;;3.45;1.10;;;;;;;20.25;41.54;100769.69;10345426;28;20057;-71
2022/07/06 21:42:16;;;;;;;1.92;1.10;;;;;;;20.23;41.45;100754.66;10342945;28;20474;-72
2022/07/06 21:47:18;;;;;;;2.45;1.23;;;;;;;20.24;41.81;100750.94;10346783;28;20568;-71
2022/07/06 21:52:19;;;;;;;1.52;0.88;;;;;;;20.10;42.03;100758.75;10346045;28;20145;-70
2022/07/06 21:57:21;;;;;;;2.92;0.85;;;;;;;20.01;41.13;100761.63;10340286;28;20054;-69
2022/07/06 22:02:22;;;;;;;2.28;0.88;;;;;;;20.07;41.67;100752.84;10345401;28;20575;-71
2022/07/06 22:07:24;;;;;;;1.42;0.90;;;;;;;20.08;42.06;100754.53;10342156;28;20164;-70
2022/07/06 22:12:25;;;;;;;1.45;0.77;;;;;;;20.13;42.03;100754.84;10351463;28;20439;-70
2022/07/06 22:17:26;;;;;;;3.45;1.05;;;;;;;20.20;41.91;100750.44;10347333;28;20132;-70
2022/07/06 22:22:28;;;;;;;2.60;0.77;;;;;;;20.22;42.46;100752.94;10343500;28;20519;-69
2022/07/06 22:27:29;;;;;;;2.47;1.00;;;;;;;20.24;41.56;100761.75;10337327;28;20090;-70
2022/07/06 22:32:31;;;;;;;2.00;1.25;;;;;;;20.14;42.89;100768.16;10341798;28;20541;-71
2022/07/06 22:37:33;;;;;;;2.20;0.90;;;;;;;20.18;42.78;100755.19;10343413;28;20699;-70
2022/07/06 22:42:34;;;;;;;3.22;0.75;;;;;;;20.21;42.46;100746.72;10343767;28;20049;-70
2022/07/06 22:47:35;;;;;;;2.58;1.15;;;;;;;20.18;42.49;100741.66;10342982;28;20059;-70
2022/07/06 22:52:37;;;;;;;4.13;1.00;;;;;;;20.25;42.21;100742.66;10343714;28;20949;-71
2022/07/06 22:57:38;;;;;;;2.80;1.15;;;;;;;20.28;42.04;100741.44;10342137;28;20847;-70
2022/07/06 23:02:40;;;;;;;2.33;0.95;;;;;;;20.28;42.68;100730.63;10343775;28;20116;-70
2022/07/06 23:07:41;;;;;;;1.85;0.80;;;;;;;20.30;41.85;100728.59;10351439;28;20136;-70
2022/07/06 23:12:44;;;;;;;1.50;1.00;;;;;;;20.32;42.46;100731.97;10349253;28;20128;-69
2022/07/06 23:17:45;;;;;;;3.40;0.90;;;;;;;20.29;41.76;100726.91;10348970;28;20132;-70
2022/07/06 23:22:47;;;;;;;2.63;1.30;;;;;;;20.31;41.92;100719.47;10346703;28;20367;-70
2022/07/06 23:27:50;;;;;;;2.80;1.10;;;;;;;20.31;41.60;100727.56;10346845;28;20127;-70